createdAt,value
2022-08-29T00:00:59.752Z,2.58
2022-08-29T00:03:27.866Z,2.67
2022-08-29T00:05:56.711Z,2.40
2022-08-29T00:08:24.339Z,2.78
2022-08-29T00:10:51.306Z,2.58
2022-08-29T00:13:18.052Z,2.70
2022-08-29T00:15:45.464Z,2.72
2022-08-29T00:18:17.480Z,2.00
2022-08-29T00:20:46.069Z,2.88
2022-08-29T00:23:12.999Z,2.50
2022-08-29T00:25:39.977Z,2.45
2022-08-29T00:28:07.572Z,2.03
2022-08-29T00:30:35.518Z,2.97
2022-08-29T00:33:02.719Z,2.83
2022-08-29T00:35:35.570Z,2.50
2022-08-29T00:38:05.661Z,2.73
2022-08-29T00:40:41.499Z,2.50
2022-08-29T00:43:10.002Z,2.50
2022-08-29T00:45:47.302Z,2.80
2022-08-29T00:48:16.574Z,2.45
2022-08-29T00:51:01.127Z,3.05
2022-08-29T00:53:40.908Z,2.78
2022-08-29T00:56:11.874Z,2.88
2022-08-29T00:58:47.641Z,2.72
2022-08-29T01:01:15.033Z,2.78
2022-08-29T01:03:43.270Z,3.20
2022-08-29T01:06:13.606Z,2.15
2022-08-29T01:08:41.839Z,2.58
2022-08-29T01:11:29.870Z,2.85
2022-08-29T01:13:58.673Z,2.45
2022-08-29T01:16:27.603Z,2.30
2022-08-29T01:19:01.442Z,2.53
2022-08-29T01:21:48.032Z,2.53
2022-08-29T01:24:41.736Z,2.65
2022-08-29T01:27:11.399Z,2.55
2022-08-29T01:29:38.376Z,2.80
2022-08-29T01:32:06.127Z,2.85
2022-08-29T01:34:33.254Z,2.70
2022-08-29T01:37:05.050Z,2.67
2022-08-29T01:39:36.877Z,2.67
2022-08-29T01:42:10.653Z,2.28
2022-08-29T01:47:08.904Z,2.50
2022-08-29T01:49:37.822Z,2.60
2022-08-29T01:52:08.382Z,2.55
2022-08-29T01:54:35.563Z,2.95
2022-08-29T01:57:02.575Z,2.55
2022-08-29T01:59:31.172Z,3.15
2022-08-29T02:02:25.961Z,2.75
2022-08-29T02:04:53.824Z,2.47
2022-08-29T02:07:24.434Z,2.65
2022-08-29T02:09:52.111Z,2.67
2022-08-29T02:12:20.703Z,2.90
2022-08-29T02:14:48.268Z,2.90
2022-08-29T02:17:15.104Z,3.05
2022-08-29T02:19:42.570Z,3.28
2022-08-29T02:22:10.032Z,3.22
2022-08-29T02:24:37.994Z,2.40
2022-08-29T02:27:05.161Z,2.58
2022-08-29T02:29:37.170Z,2.65
2022-08-29T02:32:07.269Z,2.40
2022-08-29T02:34:35.328Z,2.33
2022-08-29T02:37:02.609Z,2.72
2022-08-29T02:39:29.592Z,2.40
2022-08-29T02:41:56.652Z,2.40
2022-08-29T02:44:23.474Z,2.88
2022-08-29T02:46:50.746Z,2.80
2022-08-29T02:49:17.708Z,3.33
2022-08-29T02:51:45.342Z,2.55
2022-08-29T02:54:13.235Z,3.10
2022-08-29T02:56:41.169Z,2.53
2022-08-29T02:59:08.509Z,2.55
2022-08-29T03:01:38.657Z,3.20
2022-08-29T03:04:06.052Z,2.95
2022-08-29T03:06:33.249Z,2.90
2022-08-29T03:09:01.052Z,2.55
2022-08-29T03:11:29.617Z,2.95
2022-08-29T03:13:57.975Z,3.30
2022-08-29T03:16:27.025Z,2.75
2022-08-29T03:18:54.728Z,2.83
2022-08-29T03:21:26.957Z,2.92
2022-08-29T03:23:56.261Z,3.47
2022-08-29T03:26:23.780Z,2.92
2022-08-29T03:28:50.884Z,3.28
2022-08-29T03:31:17.745Z,2.72
2022-08-29T03:33:44.544Z,3.22
2022-08-29T03:36:13.609Z,3.10
2022-08-29T03:38:46.432Z,2.92
2022-08-29T03:41:23.297Z,2.70
2022-08-29T03:43:51.499Z,2.72
2022-08-29T03:46:18.507Z,2.90
2022-08-29T03:48:45.451Z,2.25
2022-08-29T03:51:12.497Z,3.00
2022-08-29T03:53:40.755Z,2.92
2022-08-29T03:56:10.747Z,3.00
2022-08-29T03:58:48.027Z,2.83
2022-08-29T04:01:19.224Z,2.63
2022-08-29T04:03:46.177Z,3.25
2022-08-29T04:06:12.928Z,2.35
2022-08-29T04:08:39.914Z,3.05
2022-08-29T04:11:11.495Z,2.40
2022-08-29T04:13:38.411Z,2.55
2022-08-29T04:16:19.456Z,3.15
2022-08-29T04:18:46.521Z,3.33
2022-08-29T04:21:13.850Z,2.72
2022-08-29T04:23:40.915Z,2.83
2022-08-29T04:26:36.047Z,3.33
2022-08-29T04:29:06.017Z,2.70
2022-08-29T04:31:33.012Z,2.75
2022-08-29T04:33:59.873Z,3.03
2022-08-29T04:36:28.090Z,3.25
2022-08-29T04:38:55.268Z,2.38
2022-08-29T04:41:22.106Z,3.17
2022-08-29T04:43:48.875Z,3.50
2022-08-29T04:46:23.958Z,4.45
2022-08-29T04:48:53.103Z,3.17
2022-08-29T04:51:21.361Z,3.30
2022-08-29T04:53:50.967Z,3.88
2022-08-29T04:56:18.467Z,3.97
2022-08-29T04:58:45.683Z,3.80
2022-08-29T05:01:15.981Z,3.47
2022-08-29T05:03:43.410Z,3.38
2022-08-29T05:06:13.752Z,3.50
2022-08-29T05:08:43.063Z,3.72
2022-08-29T05:11:22.587Z,3.78
2022-08-29T05:13:53.323Z,3.85
2022-08-29T05:16:20.432Z,3.28
2022-08-29T05:18:47.478Z,4.47
2022-08-29T05:21:25.759Z,4.15
2022-08-29T05:23:54.542Z,3.65
2022-08-29T05:26:21.332Z,4.05
2022-08-29T05:28:48.688Z,4.88
2022-08-29T05:31:15.640Z,4.55
2022-08-29T05:33:43.156Z,4.13
2022-08-29T05:36:10.547Z,4.72
2022-08-29T05:38:37.510Z,4.93
2022-08-29T05:41:04.785Z,5.07
2022-08-29T05:43:33.117Z,5.03
2022-08-29T05:46:06.736Z,5.07
2022-08-29T05:48:34.652Z,4.82
2022-08-29T05:51:01.870Z,5.43
2022-08-29T05:53:28.944Z,5.07
2022-08-29T05:55:55.983Z,5.07
2022-08-29T05:58:23.131Z,4.90
2022-08-29T06:00:50.382Z,4.15
2022-08-29T06:03:17.536Z,5.10
2022-08-29T06:05:52.069Z,4.28
2022-08-29T06:08:21.134Z,3.92
2022-08-29T06:10:48.219Z,3.80
2022-08-29T06:13:15.264Z,4.25
2022-08-29T06:15:45.798Z,4.30
2022-08-29T06:18:13.110Z,4.10
2022-08-29T06:20:40.331Z,4.07
2022-08-29T06:23:07.140Z,4.38
2022-08-29T06:25:39.502Z,4.72
2022-08-29T06:28:07.697Z,4.63
2022-08-29T06:30:34.847Z,3.75
2022-08-29T06:33:02.533Z,4.20
2022-08-29T06:35:29.950Z,3.80
2022-08-29T06:37:56.803Z,3.85
2022-08-29T06:40:23.721Z,4.00
2022-08-29T06:42:50.622Z,4.22
2022-08-29T06:45:17.535Z,3.60
2022-08-29T06:47:47.701Z,3.88
2022-08-29T06:50:16.499Z,3.40
2022-08-29T06:52:43.817Z,4.20
2022-08-29T06:55:14.802Z,4.18
2022-08-29T06:57:45.405Z,3.88
2022-08-29T07:00:22.092Z,3.60
2022-08-29T07:02:51.851Z,3.90
2022-08-29T07:05:22.590Z,4.10
2022-08-29T07:07:51.018Z,3.92
2022-08-29T07:10:22.548Z,3.65
2022-08-29T07:12:51.138Z,3.72
2022-08-29T07:15:18.937Z,3.85
2022-08-29T07:17:46.358Z,3.50
2022-08-29T07:20:14.312Z,3.28
2022-08-29T07:22:41.602Z,3.80
2022-08-29T07:25:10.365Z,3.50
2022-08-29T07:27:37.569Z,3.83
2022-08-29T07:30:06.738Z,3.17
2022-08-29T07:32:33.574Z,3.97
2022-08-29T07:35:00.377Z,3.55
2022-08-29T07:37:27.211Z,4.18
2022-08-29T07:39:54.427Z,4.50
2022-08-29T07:42:21.462Z,4.18
2022-08-29T07:44:48.235Z,4.18
2022-08-29T07:47:15.408Z,3.78
2022-08-29T07:49:42.284Z,3.53
2022-08-29T07:52:09.503Z,3.42
2022-08-29T07:54:36.355Z,4.10
2022-08-29T07:57:03.185Z,3.53
2022-08-29T07:59:31.269Z,3.08
2022-08-29T08:01:58.137Z,3.75
2022-08-29T08:04:26.200Z,3.95
2022-08-29T08:06:53.218Z,4.00
2022-08-29T08:09:20.064Z,3.53
2022-08-29T08:11:47.589Z,3.92
2022-08-29T08:14:14.383Z,3.58
2022-08-29T08:16:44.266Z,3.72
2022-08-29T08:19:14.243Z,3.65
2022-08-29T08:21:44.382Z,3.72
2022-08-29T08:24:19.768Z,3.80
2022-08-29T08:26:49.085Z,3.80
2022-08-29T08:29:16.317Z,3.67
2022-08-29T08:31:50.235Z,3.15
2022-08-29T08:34:18.956Z,3.92
2022-08-29T08:36:46.336Z,4.50
2022-08-29T08:39:14.618Z,3.78
2022-08-29T08:42:03.224Z,3.40
2022-08-29T08:44:58.113Z,3.83
2022-08-29T08:47:44.636Z,3.78
2022-08-29T08:50:25.335Z,3.08
2022-08-29T08:53:28.053Z,4.72
2022-08-29T08:55:58.066Z,3.58
2022-08-29T08:58:36.857Z,3.42
2022-08-29T09:01:34.348Z,3.70
2022-08-29T09:04:12.700Z,3.92
2022-08-29T09:07:26.866Z,3.75
2022-08-29T09:10:40.994Z,4.22
2022-08-29T09:13:45.958Z,3.40
2022-08-29T09:16:34.202Z,3.10
2022-08-29T09:19:10.898Z,3.60
2022-08-29T09:21:58.951Z,3.25
2022-08-29T09:24:49.164Z,3.42
2022-08-29T09:27:21.991Z,3.30
2022-08-29T09:30:10.985Z,3.30
2022-08-29T09:33:15.287Z,3.67
2022-08-29T09:35:47.585Z,3.40
2022-08-29T09:38:17.427Z,4.05
2022-08-29T09:40:57.001Z,4.18
2022-08-29T09:43:39.430Z,3.65
2022-08-29T09:46:24.438Z,3.70
2022-08-29T09:49:19.048Z,3.35
2022-08-29T09:51:49.386Z,4.05
2022-08-29T09:54:28.601Z,3.38
2022-08-29T09:57:26.492Z,3.75
2022-08-29T10:00:14.484Z,3.70
2022-08-29T10:02:50.309Z,3.28
2022-08-29T10:05:45.919Z,3.47
2022-08-29T10:08:38.900Z,3.63
2022-08-29T10:11:41.814Z,3.53
2022-08-29T10:14:37.023Z,3.40
2022-08-29T10:17:44.902Z,3.22
2022-08-29T10:20:12.173Z,3.33
2022-08-29T10:22:57.596Z,3.28
2022-08-29T10:25:37.452Z,3.47
2022-08-29T10:28:31.193Z,3.13
2022-08-29T10:31:13.572Z,3.70
2022-08-29T10:34:05.097Z,3.17
2022-08-29T10:36:37.284Z,3.63
2022-08-29T10:40:04.044Z,3.55
2022-08-29T10:42:34.790Z,3.30
2022-08-29T10:45:36.266Z,3.80
2022-08-29T10:48:19.474Z,3.38
2022-08-29T10:51:09.068Z,3.30
2022-08-29T10:53:43.853Z,3.65
2022-08-29T10:56:33.055Z,3.30
2022-08-29T11:00:02.644Z,3.17
2022-08-29T11:02:52.024Z,3.00
2022-08-29T11:05:39.331Z,3.38
2022-08-29T11:08:31.936Z,3.42
2022-08-29T11:10:58.776Z,4.28
2022-08-29T11:13:42.064Z,3.55
2022-08-29T11:16:27.513Z,3.70
2022-08-29T11:19:16.182Z,3.50
2022-08-29T11:22:09.644Z,3.15
2022-08-29T11:24:42.007Z,3.10
2022-08-29T11:28:04.179Z,3.20
2022-08-29T11:30:55.815Z,2.90
2022-08-29T11:33:42.606Z,3.35
2022-08-29T11:36:49.294Z,3.15
2022-08-29T11:39:54.772Z,3.90
2022-08-29T11:45:29.637Z,2.88
2022-08-29T11:48:46.219Z,2.78
2022-08-29T11:51:37.459Z,3.35
2022-08-29T11:54:26.449Z,2.90
2022-08-29T11:57:02.554Z,3.50
2022-08-29T11:59:54.662Z,3.30
2022-08-29T12:02:27.705Z,3.20
2022-08-29T12:04:56.909Z,3.30
2022-08-29T12:07:54.487Z,3.30
2022-08-29T12:10:23.933Z,3.20
2022-08-29T12:13:03.561Z,3.00
2022-08-29T12:15:30.576Z,3.70
2022-08-29T12:18:36.324Z,3.03
2022-08-29T12:21:39.451Z,3.17
2022-08-29T12:24:29.327Z,3.03
2022-08-29T12:26:56.403Z,3.08
2022-08-29T12:29:44.639Z,2.65
2022-08-29T12:32:35.072Z,2.42
2022-08-29T12:35:14.427Z,2.88
2022-08-29T12:38:16.745Z,2.85
2022-08-29T12:40:57.038Z,2.63
2022-08-29T12:43:42.552Z,2.42
2022-08-29T12:46:28.626Z,3.35
2022-08-29T12:49:53.150Z,3.58
2022-08-29T12:52:38.940Z,3.00
2022-08-29T12:55:29.041Z,2.63
2022-08-29T12:57:57.661Z,3.28
2022-08-29T13:00:30.211Z,3.17
2022-08-29T13:03:18.214Z,3.05
2022-08-29T13:05:47.162Z,2.97
2022-08-29T13:08:28.426Z,2.42
2022-08-29T13:11:05.242Z,2.47
2022-08-29T13:13:32.191Z,2.80
2022-08-29T13:16:02.948Z,3.22
2022-08-29T13:18:33.735Z,2.72
2022-08-29T13:21:22.161Z,3.20
2022-08-29T13:24:24.642Z,2.90
2022-08-29T13:27:04.798Z,3.17
2022-08-29T13:29:41.290Z,2.67
2022-08-29T13:32:26.849Z,2.47
2022-08-29T13:35:06.334Z,2.28
2022-08-29T13:37:43.098Z,2.65
2022-08-29T13:40:31.896Z,2.50
2022-08-29T13:43:00.952Z,2.80
2022-08-29T13:45:28.672Z,2.92
2022-08-29T13:47:59.237Z,2.58
2022-08-29T13:50:27.613Z,3.35
2022-08-29T13:52:57.250Z,2.78
2022-08-29T13:55:25.813Z,2.45
2022-08-29T13:57:55.154Z,2.50
2022-08-29T14:00:31.932Z,3.00
2022-08-29T14:03:01.404Z,2.65
2022-08-29T14:05:28.442Z,2.65
2022-08-29T14:07:55.265Z,2.70
2022-08-29T14:10:22.125Z,2.70
2022-08-29T14:12:49.199Z,2.30
2022-08-29T14:15:19.326Z,2.58
2022-08-29T14:17:47.944Z,2.72
2022-08-29T14:20:17.767Z,2.53
2022-08-29T14:22:45.885Z,2.60
2022-08-29T14:25:15.105Z,2.28
2022-08-29T14:27:43.751Z,2.50
2022-08-29T14:30:14.393Z,2.65
2022-08-29T14:32:41.414Z,2.05
2022-08-29T14:35:09.348Z,2.05
2022-08-29T14:37:36.280Z,2.33
2022-08-29T14:40:08.834Z,3.13
2022-08-29T14:42:36.747Z,2.13
2022-08-29T14:45:06.113Z,2.72
2022-08-29T14:47:33.171Z,2.28
2022-08-29T14:50:00.699Z,2.45
2022-08-29T14:52:28.007Z,1.90
2022-08-29T14:54:56.276Z,1.90
2022-08-29T14:57:23.171Z,2.08
2022-08-29T14:59:51.076Z,2.00
2022-08-29T15:02:20.672Z,2.17
2022-08-29T15:04:49.974Z,2.95
2022-08-29T15:07:18.253Z,3.00
2022-08-29T15:09:45.953Z,2.38
2022-08-29T15:12:15.620Z,2.00
2022-08-29T15:14:42.719Z,1.83
2022-08-29T15:17:10.812Z,1.70
2022-08-29T15:20:18.227Z,1.55
2022-08-29T15:22:25.417Z,1.70
2022-08-29T15:24:53.161Z,1.60
2022-08-29T15:27:26.882Z,1.77
2022-08-29T15:29:54.120Z,1.98
2022-08-29T15:32:20.981Z,1.60
2022-08-29T15:34:47.724Z,1.75
2022-08-29T15:37:14.835Z,1.55
2022-08-29T15:39:42.121Z,1.60
2022-08-29T15:42:11.822Z,1.65
2022-08-29T15:44:44.353Z,1.40
2022-08-29T15:47:11.767Z,1.42
2022-08-29T15:49:39.615Z,1.65
2022-08-29T15:52:06.865Z,1.45
2022-08-29T15:54:33.679Z,1.40
2022-08-29T15:57:01.062Z,1.50
2022-08-29T15:59:54.412Z,1.40
2022-08-29T16:02:15.263Z,1.60
2022-08-29T16:04:48.522Z,1.40
2022-08-29T16:07:17.673Z,1.58
2022-08-29T16:09:45.769Z,1.60
2022-08-29T16:12:12.868Z,1.42
2022-08-29T16:17:30.960Z,1.52
2022-08-29T16:20:00.123Z,1.60
2022-08-29T16:22:28.469Z,1.38
2022-08-29T16:24:55.892Z,1.30
2022-08-29T16:27:24.220Z,1.05
2022-08-29T16:29:53.132Z,0.93
2022-08-29T16:32:20.817Z,0.90
2022-08-29T16:34:47.785Z,1.13
2022-08-29T16:37:15.054Z,1.00
2022-08-29T16:39:42.048Z,0.95
2022-08-29T16:42:12.053Z,0.90
2022-08-29T16:44:40.006Z,1.15
2022-08-29T16:47:07.046Z,1.10
2022-08-29T16:49:33.916Z,1.10
2022-08-29T16:52:00.716Z,0.90
2022-08-29T16:54:27.592Z,0.77
2022-08-29T16:56:55.186Z,1.05
2022-08-29T16:59:22.730Z,0.68
2022-08-29T17:01:53.403Z,0.65
2022-08-29T17:04:26.026Z,1.10
2022-08-29T17:06:53.338Z,1.30
2022-08-29T17:09:23.624Z,1.10
2022-08-29T17:11:52.884Z,0.93
2022-08-29T17:14:21.393Z,1.25
2022-08-29T17:16:52.470Z,1.00
2022-08-29T17:19:20.942Z,1.02
2022-08-29T17:21:48.284Z,1.10
2022-08-29T17:24:16.154Z,0.88
2022-08-29T17:26:46.879Z,1.00
2022-08-29T17:29:15.231Z,1.30
2022-08-29T17:31:42.786Z,1.05
2022-08-29T17:34:10.282Z,0.93
2022-08-29T17:36:40.503Z,0.88
2022-08-29T17:39:08.857Z,1.00
2022-08-29T17:41:37.394Z,1.15
2022-08-29T17:44:07.574Z,1.08
2022-08-29T17:46:35.158Z,1.20
2022-08-29T17:49:07.423Z,1.00
2022-08-29T17:51:35.562Z,0.85
2022-08-29T17:54:04.601Z,1.02
2022-08-29T17:56:48.095Z,0.90
2022-08-29T17:59:17.853Z,1.02
2022-08-29T18:01:45.638Z,1.00
2022-08-29T18:04:13.284Z,1.15
2022-08-29T18:06:40.432Z,1.08
2022-08-29T18:09:09.118Z,1.20
2022-08-29T18:11:45.576Z,0.95
2022-08-29T18:14:13.110Z,0.90
2022-08-29T18:16:40.160Z,0.93
2022-08-29T18:19:08.127Z,0.95
2022-08-29T18:21:35.972Z,0.80
2022-08-29T18:24:04.108Z,0.80
2022-08-29T18:26:33.606Z,1.20
2022-08-29T18:29:00.500Z,1.15
2022-08-29T18:31:27.438Z,1.17
2022-08-29T18:34:00.699Z,1.10
2022-08-29T18:36:34.077Z,1.40
2022-08-29T18:39:04.460Z,1.30
2022-08-29T18:41:31.564Z,1.15
2022-08-29T18:43:58.919Z,1.20
2022-08-29T18:46:27.363Z,1.38
2022-08-29T18:48:54.355Z,1.80
2022-08-29T18:51:21.257Z,1.80
2022-08-29T18:53:48.116Z,1.40
2022-08-29T18:56:15.798Z,1.50
2022-08-29T18:58:44.684Z,1.23
2022-08-29T19:01:27.345Z,1.20
2022-08-29T19:03:56.609Z,1.30
2022-08-29T19:06:25.842Z,1.40
2022-08-29T19:08:54.539Z,1.30
2022-08-29T19:11:21.318Z,1.20
2022-08-29T19:13:52.624Z,1.90
2022-08-29T19:16:22.095Z,1.52
2022-08-29T19:18:50.036Z,1.50
2022-08-29T19:21:16.887Z,1.52
2022-08-29T19:23:52.531Z,1.20
2022-08-29T19:26:34.979Z,1.60
2022-08-29T19:29:12.400Z,1.75
2022-08-29T19:31:40.895Z,1.23
2022-08-29T19:34:08.087Z,1.08
2022-08-29T19:36:34.961Z,1.23
2022-08-29T19:39:01.950Z,1.40
2022-08-29T19:41:28.685Z,1.40
2022-08-29T19:43:55.540Z,1.30
2022-08-29T19:46:24.054Z,1.15
2022-08-29T19:48:52.560Z,1.08
2022-08-29T19:51:25.075Z,1.38
2022-08-29T19:53:53.928Z,1.40
2022-08-29T19:56:20.923Z,1.20
2022-08-29T19:58:49.516Z,1.17
2022-08-29T20:01:17.263Z,1.02
2022-08-29T20:03:44.527Z,1.50
2022-08-29T20:06:12.249Z,1.40
2022-08-29T20:08:43.651Z,1.15
2022-08-29T20:11:14.153Z,1.40
2022-08-29T20:13:47.571Z,1.30
2022-08-29T20:16:21.855Z,1.08
2022-08-29T20:18:48.867Z,1.50
2022-08-29T20:21:17.272Z,1.27
2022-08-29T20:23:49.963Z,1.00
2022-08-29T20:26:20.965Z,1.10
2022-08-29T20:28:51.654Z,1.15
2022-08-29T20:31:19.405Z,1.40
2022-08-29T20:33:48.258Z,1.00
2022-08-29T20:36:38.581Z,1.00
2022-08-29T20:39:07.718Z,1.10
2022-08-29T20:41:34.947Z,0.90
2022-08-29T20:44:06.983Z,1.10
2022-08-29T20:46:40.403Z,0.90
2022-08-29T20:49:12.502Z,0.95
2022-08-29T20:51:44.358Z,0.93
2022-08-29T20:54:17.778Z,1.33
2022-08-29T20:56:44.854Z,1.00
2022-08-29T20:59:12.339Z,0.88
2022-08-29T21:01:40.358Z,1.42
2022-08-29T21:04:27.804Z,1.40
2022-08-29T21:07:08.717Z,1.20
2022-08-29T21:09:40.272Z,1.17
2022-08-29T21:12:07.942Z,0.93
2022-08-29T21:14:34.763Z,0.80
2022-08-29T21:17:02.750Z,0.90
2022-08-29T21:19:30.025Z,0.90
2022-08-29T21:22:02.643Z,1.13
2022-08-29T21:24:30.406Z,0.77
2022-08-29T21:26:57.642Z,0.98
2022-08-29T21:29:24.458Z,0.80
2022-08-29T21:31:53.962Z,0.95
2022-08-29T21:34:22.258Z,0.90
2022-08-29T21:36:50.563Z,0.90
2022-08-29T21:39:19.673Z,0.90
2022-08-29T21:41:56.497Z,1.02
2022-08-29T21:44:23.843Z,0.77
2022-08-29T21:46:50.702Z,1.10
2022-08-29T21:49:21.740Z,1.15
2022-08-29T21:51:49.561Z,0.95
2022-08-29T21:54:17.989Z,1.08
2022-08-29T21:56:46.220Z,0.98
2022-08-29T21:59:14.970Z,0.77
2022-08-29T22:01:43.798Z,0.90
2022-08-29T22:04:18.687Z,1.08
2022-08-29T22:06:55.640Z,0.90
2022-08-29T22:09:23.214Z,1.00
2022-08-29T22:11:50.283Z,0.80
2022-08-29T22:14:17.084Z,1.10
2022-08-29T22:16:43.964Z,1.00
2022-08-29T22:19:16.811Z,1.10
2022-08-29T22:21:51.990Z,1.10
2022-08-29T22:24:19.354Z,0.90
2022-08-29T22:26:46.937Z,1.05
2022-08-29T22:29:18.309Z,0.90
2022-08-29T22:31:45.778Z,0.90
2022-08-29T22:34:16.776Z,0.90
2022-08-29T22:36:44.254Z,1.02
2022-08-29T22:39:11.505Z,1.10
2022-08-29T22:41:38.376Z,1.10
2022-08-29T22:46:53.963Z,1.48
2022-08-29T22:49:21.294Z,1.30
2022-08-29T22:51:49.006Z,1.40
2022-08-29T22:54:48.130Z,1.08
2022-08-29T22:57:19.174Z,1.40
2022-08-29T22:59:49.241Z,1.20
2022-08-29T23:02:20.121Z,1.42
2022-08-29T23:04:50.080Z,1.40
2022-08-29T23:07:17.730Z,1.60
2022-08-29T23:09:44.944Z,1.40
2022-08-29T23:12:14.637Z,1.30
2022-08-29T23:14:46.669Z,1.20
2022-08-29T23:17:15.144Z,1.42
2022-08-29T23:19:43.164Z,1.55
2022-08-29T23:22:12.440Z,1.20
2022-08-29T23:24:41.345Z,1.20
2022-08-29T23:27:20.774Z,1.15
2022-08-29T23:29:51.532Z,1.17
2022-08-29T23:32:18.772Z,1.52
2022-08-29T23:34:45.627Z,1.20
2022-08-29T23:37:12.428Z,1.42
2022-08-29T23:39:39.209Z,1.40
2022-08-29T23:42:06.592Z,1.35
2022-08-29T23:44:33.749Z,1.25
2022-08-29T23:47:00.514Z,1.70
2022-08-29T23:49:28.550Z,1.30
2022-08-29T23:51:55.402Z,1.20
2022-08-29T23:54:22.179Z,1.30
2022-08-29T23:56:49.124Z,1.20
2022-08-29T23:59:35.880Z,1.20
